Time;durP1;ratioP1;P1;durP2;ratioP2;P2;SDS_P1;SDS_P2;PMS_P1;PMS_P2;Temp;Humidity;BMP_temperature;BMP_pressure;BME280_temperature;BME280_humidity;BME280_pressure;Samples;Min_cycle;Max_cycle;Signal;HPM_P1;HPM_P2
2023/07/13 00:01:54;;;;;;;15.73;13.57;;;;;;;-144.30;58.97;83701.13;5069762;28;20292;-52
2023/07/13 00:04:24;;;;;;;16.65;12.88;;;;;;;-144.30;59.56;83719.03;5070157;28;20222;-52
2023/07/13 00:06:52;;;;;;;14.75;12.82;;;;;;;-144.30;59.81;83723.00;5070086;28;20198;-48
2023/07/13 00:09:20;;;;;;;18.20;13.73;;;;;;;-144.30;60.29;83732.94;5070008;28;20672;-49
2023/07/13 00:11:52;;;;;;;18.77;12.65;;;;;;;-144.30;60.52;83744.84;5069691;28;20219;-49
2023/07/13 00:14:19;;;;;;;14.07;12.65;;;;;;;-144.30;60.07;83707.09;5069651;28;20200;-47
2023/07/13 00:16:49;;;;;;;14.35;12.85;;;;;;;-144.30;59.75;83683.25;5069604;28;20282;-51
2023/07/13 00:19:16;;;;;;;14.77;13.02;;;;;;;-144.30;60.14;83721.00;5070063;28;20694;-48
2023/07/13 00:21:43;;;;;;;13.90;12.50;;;;;;;-144.30;59.81;83681.28;5069588;28;20196;-51
2023/07/13 00:24:13;;;;;;;14.57;13.15;;;;;;;-144.30;59.79;83730.94;5068782;28;20687;-48
2023/07/13 00:26:40;;;;;;;14.40;13.05;;;;;;;-144.30;60.27;83709.09;5069403;28;20214;-48
2023/07/13 00:29:08;;;;;;;16.30;13.27;;;;;;;-144.30;60.36;83695.19;5069619;28;20609;-50
2023/07/13 00:31:36;;;;;;;15.95;13.68;;;;;;;-144.30;60.75;83961.44;5069625;28;20775;-49
2023/07/13 00:34:04;;;;;;;16.77;13.10;;;;;;;-144.30;60.96;83774.66;5069418;28;20204;-51
2023/07/13 00:36:32;;;;;;;14.63;13.10;;;;;;;-144.30;61.14;83721.00;5069247;28;20223;-51
2023/07/13 00:38:58;;;;;;;15.05;13.05;;;;;;;-144.30;61.08;83766.72;5069207;28;20203;-51
2023/07/13 00:41:26;;;;;;;18.17;13.55;;;;;;;-144.30;61.17;83748.81;5069268;28;20217;-52
2023/07/13 00:43:52;;;;;;;15.75;14.05;;;;;;;-144.30;60.53;83782.59;5068827;28;20215;-49
2023/07/13 00:46:28;;;;;;;17.02;13.45;;;;;;;-144.30;60.53;83717.03;5069611;28;20196;-52
2023/07/13 00:48:57;;;;;;;21.42;14.85;;;;;;;-144.30;60.26;83715.03;5069110;28;20199;-52
2023/07/13 00:51:32;;;;;;;19.52;13.43;;;;;;;-144.30;59.67;83723.00;5069161;28;20226;-49
2023/07/13 00:54:04;;;;;;;14.70;13.05;;;;;;;-144.30;59.28;83683.25;5068810;28;20199;-48
2023/07/13 00:56:33;;;;;;;14.88;13.35;;;;;;;-144.30;59.63;83703.13;5069327;28;20188;-52
2023/07/13 00:59:01;;;;;;;16.17;13.68;;;;;;;-144.30;59.69;83754.78;5069255;28;20196;-51
2023/07/13 01:01:28;;;;;;;16.33;13.70;;;;;;;-144.30;60.04;83728.97;5069069;28;20778;-49
2023/07/13 01:03:56;;;;;;;15.10;13.38;;;;;;;-144.30;59.59;83762.72;5068616;28;20215;-49
2023/07/13 01:06:24;;;;;;;14.75;13.35;;;;;;;-144.30;59.25;83734.91;5068979;28;20203;-52
2023/07/13 01:08:52;;;;;;;14.98;13.13;;;;;;;-144.30;58.77;83691.19;5068873;28;20295;-52
2023/07/13 01:11:23;;;;;;;13.32;12.13;;;;;;;-144.30;58.54;83905.81;5068998;28;20231;-49
2023/07/13 01:13:50;;;;;;;12.50;11.48;;;;;;;-144.30;58.57;83713.06;5068907;28;20196;-52
2023/07/13 01:16:25;;;;;;;13.30;11.57;;;;;;;-144.30;58.30;83707.09;5069025;28;20584;-52
2023/07/13 01:18:52;;;;;;;13.30;11.90;;;;;;;-144.30;58.75;83723.00;5068801;28;20195;-52
2023/07/13 01:21:20;;;;;;;13.73;12.32;;;;;;;-144.30;59.22;83794.53;5069008;28;20214;-54
2023/07/13 01:23:48;;;;;;;14.30;12.43;;;;;;;-144.30;59.59;83778.63;5068604;28;20204;-49
2023/07/13 01:26:15;;;;;;;16.30;12.00;;;;;;;-144.30;59.54;83818.38;5069006;28;20741;-52
2023/07/13 01:28:41;;;;;;;12.90;11.40;;;;;;;-144.30;59.23;83746.84;5068718;28;20714;-52
2023/07/13 01:31:09;;;;;;;12.75;10.90;;;;;;;-144.30;58.28;83762.72;5068677;28;20250;-52
2023/07/13 01:33:39;;;;;;;11.98;10.73;;;;;;;-144.30;57.21;83792.53;5069208;28;20634;-50
2023/07/13 01:36:06;;;;;;;16.45;14.77;;;;;;;-144.30;57.16;83790.56;5068614;28;20270;-52
2023/07/13 01:38:36;;;;;;;12.93;11.77;;;;;;;-144.30;56.87;83780.63;5069102;28;20199;-49
2023/07/13 01:41:03;;;;;;;11.75;10.63;;;;;;;-144.30;57.07;83794.53;5068486;28;20203;-52
2023/07/13 01:43:30;;;;;;;11.55;10.40;;;;;;;-144.30;57.37;83818.38;5068667;28;20200;-50
2023/07/13 01:45:57;;;;;;;13.15;10.68;;;;;;;-144.30;57.70;83810.41;5068132;28;20443;-50
2023/07/13 01:48:24;;;;;;;11.65;10.30;;;;;;;-144.30;58.14;83862.09;5068763;28;20290;-52
2023/07/13 01:50:50;;;;;;;11.68;10.15;;;;;;;-144.30;58.56;83832.28;5068455;28;20306;-49
2023/07/13 01:53:17;;;;;;;11.75;10.63;;;;;;;-144.30;58.96;83864.06;5068730;28;20200;-53
2023/07/13 01:55:46;;;;;;;13.30;11.02;;;;;;;-144.30;59.25;83909.78;5068737;28;20200;-52
2023/07/13 01:58:12;;;;;;;11.85;10.57;;;;;;;-144.30;59.54;83866.06;5072717;28;20305;-54
2023/07/13 02:00:39;;;;;;;11.88;10.88;;;;;;;-144.30;59.66;83885.94;5072405;28;20570;-53
2023/07/13 02:03:06;;;;;;;12.00;10.82;;;;;;;-144.30;59.54;83834.25;5072487;28;20196;-53
2023/07/13 02:05:33;;;;;;;12.88;11.50;;;;;;;-144.30;60.10;83840.22;5072248;28;20204;-51
2023/07/13 02:08:00;;;;;;;12.68;10.63;;;;;;;-144.30;60.54;83854.13;5072222;28;20583;-48
2023/07/13 02:10:28;;;;;;;11.68;10.40;;;;;;;-144.30;61.02;83877.97;5072073;28;20200;-50
2023/07/13 02:12:56;;;;;;;11.82;10.73;;;;;;;-144.30;61.16;83862.09;5072020;28;20217;-50
2023/07/13 02:15:23;;;;;;;17.65;11.27;;;;;;;-144.30;61.45;83879.97;5072244;28;20206;-51
2023/07/13 02:17:50;;;;;;;12.20;11.00;;;;;;;-144.30;61.39;83921.69;5071982;28;20578;-50
2023/07/13 02:20:17;;;;;;;12.32;11.05;;;;;;;-144.30;61.67;83885.94;5072159;28;20580;-49
2023/07/13 02:22:44;;;;;;;11.90;10.80;;;;;;;-144.30;61.61;83917.72;5071749;28;20207;-51
2023/07/13 02:25:11;;;;;;;11.60;10.70;;;;;;;-144.30;61.98;83969.38;5071893;28;20585;-50
2023/07/13 02:27:37;;;;;;;11.93;11.02;;;;;;;-144.30;62.00;83929.66;5071696;28;20198;-50
2023/07/13 02:30:07;;;;;;;14.38;12.93;;;;;;;-144.30;61.90;83937.59;5071894;28;20317;-49
2023/07/13 02:32:35;;;;;;;11.52;10.43;;;;;;;-144.30;62.01;83963.44;5071905;28;20661;-52
2023/07/13 02:35:02;;;;;;;12.00;10.85;;;;;;;-144.30;62.50;83891.88;5071494;28;20272;-51
2023/07/13 02:37:29;;;;;;;12.38;11.15;;;;;;;-144.30;62.40;83929.66;5071636;28;20204;-52
2023/07/13 02:39:56;;;;;;;12.15;11.15;;;;;;;-144.30;62.31;83881.97;5071642;28;20192;-51
2023/07/13 02:42:23;;;;;;;12.88;11.57;;;;;;;-144.30;62.17;83872.03;5071826;28;20298;-51
2023/07/13 02:44:50;;;;;;;13.98;12.27;;;;;;;-144.30;62.46;83925.66;5071555;28;20668;-49
2023/07/13 02:47:19;;;;;;;12.38;11.38;;;;;;;-144.30;62.09;83864.06;5071495;28;20200;-50
2023/07/13 02:49:46;;;;;;;12.75;11.55;;;;;;;-144.30;61.85;83911.75;5071258;28;20199;-50
2023/07/13 02:52:12;;;;;;;18.23;12.13;;;;;;;-144.30;62.10;83889.91;5071257;28;20230;-52
2023/07/13 02:54:39;;;;;;;13.15;12.07;;;;;;;-144.30;62.45;83909.78;5070962;28;20723;-52
2023/07/13 02:57:07;;;;;;;12.93;11.82;;;;;;;-144.30;63.35;83913.75;5071568;28;20668;-48
2023/07/13 02:59:34;;;;;;;18.27;11.68;;;;;;;-144.30;63.46;83937.59;5071340;28;20200;-52
2023/07/13 03:02:02;;;;;;;12.93;11.73;;;;;;;-144.30;63.10;83941.56;5071023;28;20192;-53
2023/07/13 03:04:30;;;;;;;12.68;11.38;;;;;;;-144.30;62.97;83949.50;5071616;28;20554;-53
2023/07/13 03:06:58;;;;;;;12.52;11.35;;;;;;;-144.30;63.28;83981.31;5067179;28;20196;-53
2023/07/13 03:09:25;;;;;;;12.27;11.27;;;;;;;-144.30;62.58;83941.56;5070903;28;20199;-53
2023/07/13 03:11:54;;;;;;;15.55;13.60;;;;;;;-144.30;61.94;83981.31;5071002;28;20219;-53
2023/07/13 03:14:22;;;;;;;12.98;11.77;;;;;;;-144.30;61.94;83917.72;5070993;28;20269;-48
2023/07/13 03:16:49;;;;;;;13.65;12.32;;;;;;;-144.30;61.92;83917.72;5070793;28;20679;-52
2023/07/13 03:19:16;;;;;;;16.50;10.73;;;;;;;-144.30;61.89;83971.38;5070886;28;20690;-52
2023/07/13 03:21:44;;;;;;;13.32;11.70;;;;;;;-144.30;61.64;83949.50;5070170;28;20748;-51
2023/07/13 03:24:11;;;;;;;12.68;11.43;;;;;;;-144.30;61.38;83989.25;5070980;28;20279;-54
2023/07/13 03:26:39;;;;;;;15.25;11.45;;;;;;;-144.30;61.50;83963.44;5070853;28;20785;-54
2023/07/13 03:29:06;;;;;;;11.60;10.68;;;;;;;-144.30;61.02;83953.50;5070697;28;20196;-52
2023/07/13 03:31:35;;;;;;;11.88;10.75;;;;;;;-144.30;61.13;83846.19;5070569;28;20224;-53
2023/07/13 03:34:03;;;;;;;12.27;11.18;;;;;;;-144.30;60.35;83945.53;5070549;28;20203;-50
2023/07/13 03:36:32;;;;;;;11.35;10.25;;;;;;;-144.30;59.67;83879.97;5068748;28;20245;-50
2023/07/13 03:39:02;;;;;;;11.88;10.23;;;;;;;-144.30;59.42;83907.78;5070568;28;20608;-50
2023/07/13 03:41:30;;;;;;;10.68;9.60;;;;;;;-144.30;59.10;83905.81;5070443;28;20207;-54
2023/07/13 03:43:57;;;;;;;14.75;10.82;;;;;;;-144.30;58.57;83874.00;5070276;28;20199;-53
2023/07/13 03:46:24;;;;;;;13.57;10.20;;;;;;;-144.30;58.44;83901.81;5070112;28;20235;-52
2023/07/13 03:48:51;;;;;;;11.98;10.30;;;;;;;-144.30;57.65;83860.09;5069823;28;20664;-51
2023/07/13 03:51:19;;;;;;;11.18;10.13;;;;;;;-144.30;57.43;83850.16;5069662;28;20253;-51
2023/07/13 03:53:48;;;;;;;14.35;11.00;;;;;;;-144.30;57.21;83832.28;5070201;28;20202;-51
2023/07/13 03:56:16;;;;;;;16.60;10.57;;;;;;;-144.30;56.39;83826.31;5069653;28;20196;-53
2023/07/13 03:58:46;;;;;;;16.52;11.18;;;;;;;-144.30;55.05;83715.03;5069909;28;20192;-51
2023/07/13 04:01:14;;;;;;;17.13;11.40;;;;;;;-144.30;52.57;83550.13;5069564;28;20694;-50
2023/07/13 04:03:41;;;;;;;13.15;9.57;;;;;;;-144.30;49.41;83333.56;5068415;28;20211;-50
2023/07/13 04:06:15;;;;;;;12.07;10.77;;;;;;;-144.30;46.10;83063.38;5069079;28;20672;-52
2023/07/13 04:08:42;;;;;;;14.73;10.02;;;;;;;-144.30;43.54;82876.66;5069592;28;20207;-53
2023/07/13 04:11:09;;;;;;;14.02;10.32;;;;;;;-144.30;41.09;82656.16;5069916;28;20666;-52
2023/07/13 04:13:37;;;;;;;13.93;10.00;;;;;;;-144.30;40.09;82578.69;5069842;28;20192;-51
2023/07/13 04:16:04;;;;;;;10.93;9.88;;;;;;;-144.30;38.75;82346.28;5069597;28;20675;-51
2023/07/13 04:18:31;;;;;;;12.23;10.02;;;;;;;-144.30;37.16;82135.75;5069309;28;20206;-52
2023/07/13 04:20:58;;;;;;;10.75;9.70;;;;;;;-144.30;36.43;82028.53;5069434;28;20235;-49
2023/07/13 04:23:25;;;;;;;13.63;9.85;;;;;;;-144.30;35.75;81931.22;5069551;28;20203;-49
2023/07/13 04:25:54;;;;;;;10.80;9.82;;;;;;;-144.30;35.37;81845.81;5069100;28;20246;-50
2023/07/13 04:28:21;;;;;;;15.82;10.10;;;;;;;-144.30;35.37;81835.88;5069578;28;20593;-50
2023/07/13 04:30:50;;;;;;;13.43;11.00;;;;;;;-144.30;34.56;81619.44;5068673;28;20694;-49
2023/07/13 04:33:22;;;;;;;13.23;11.45;;;;;;;-144.30;34.73;81631.34;5069386;28;20707;-51
2023/07/13 04:35:49;;;;;;;11.45;10.52;;;;;;;-144.30;33.86;81508.22;5068989;28;20635;-52
2023/07/13 04:38:16;;;;;;;11.80;10.70;;;;;;;-144.30;33.13;81347.38;5068711;28;20205;-51
2023/07/13 04:40:44;;;;;;;10.70;9.73;;;;;;;-144.30;32.53;81095.22;5069033;28;20204;-52
2023/07/13 04:43:11;;;;;;;12.10;10.93;;;;;;;-144.30;31.77;80940.38;5069055;28;20256;-52
2023/07/13 04:45:38;;;;;;;14.95;10.50;;;;;;;-144.30;31.37;80801.41;5069470;28;20599;-52
2023/07/13 04:48:06;;;;;;;11.90;9.93;;;;;;;-144.30;30.77;80642.56;5065346;28;20203;-55
2023/07/13 04:50:33;;;;;;;16.50;10.60;;;;;;;-144.30;30.98;80751.75;5069220;28;20203;-52
2023/07/13 04:53:00;;;;;;;15.60;10.55;;;;;;;-144.30;30.89;80765.66;5068998;28;20606;-52
2023/07/13 04:55:30;;;;;;;16.17;11.23;;;;;;;-144.30;30.58;80590.97;5068885;28;20203;-52
2023/07/13 04:57:58;;;;;;;13.10;10.90;;;;;;;-144.30;29.81;80255.47;5069104;28;20688;-52
2023/07/13 05:00:26;;;;;;;11.90;10.65;;;;;;;-144.30;29.04;80195.94;5069184;28;20264;-50
2023/07/13 05:02:55;;;;;;;11.20;10.40;;;;;;;-144.30;28.15;79675.91;5068245;28;20195;-52
2023/07/13 05:05:24;;;;;;;16.95;11.20;;;;;;;-144.30;28.30;79896.22;5068841;28;20191;-50
2023/07/13 05:07:51;;;;;;;12.32;10.88;;;;;;;-144.30;28.04;79699.72;5068676;28;20199;-53
2023/07/13 05:10:18;;;;;;;12.52;10.32;;;;;;;-144.30;27.38;79489.38;5068718;28;20196;-52
2023/07/13 05:12:45;;;;;;;13.38;11.50;;;;;;;-144.30;27.00;79322.66;5067713;28;20233;-50
2023/07/13 05:15:12;;;;;;;17.70;11.55;;;;;;;-144.30;26.87;79221.47;5067351;28;20191;-50
2023/07/13 05:17:40;;;;;;;13.93;10.75;;;;;;;-144.30;26.99;79441.75;5068411;28;20584;-54
2023/07/13 05:20:08;;;;;;;14.85;10.82;;;;;;;-144.30;27.45;79527.06;5069333;28;20651;-53
2023/07/13 05:22:36;;;;;;;13.73;10.93;;;;;;;-144.30;26.80;79296.88;5069050;28;20575;-51
2023/07/13 05:25:06;;;;;;;12.38;11.07;;;;;;;-144.30;26.77;79209.56;5068831;28;20200;-50
2023/07/13 05:27:33;;;;;;;12.20;10.68;;;;;;;-144.30;26.46;79183.75;5068729;28;20203;-49
2023/07/13 05:30:00;;;;;;;13.88;12.65;;;;;;;-144.30;26.40;79100.41;5068683;28;20206;-50
2023/07/13 05:32:27;;;;;;;12.95;12.05;;;;;;;-144.30;26.04;78903.97;5071927;28;20246;-50
2023/07/13 05:34:54;;;;;;;13.98;10.77;;;;;;;-144.30;25.95;78917.88;5071162;28;20589;-50
2023/07/13 05:37:21;;;;;;;12.07;11.05;;;;;;;-144.30;26.75;79360.38;5058876;28;20677;-52
2023/07/13 05:39:49;;;;;;;12.55;11.23;;;;;;;-144.30;26.89;79511.19;5051646;28;20580;-52
2023/07/13 05:42:16;;;;;;;15.57;10.68;;;;;;;-144.30;26.89;79360.38;5052590;28;20192;-51
2023/07/13 05:44:43;;;;;;;13.32;11.40;;;;;;;-144.30;26.60;79235.34;5052519;28;20196;-52
2023/07/13 05:47:10;;;;;;;13.80;12.02;;;;;;;-144.30;26.46;79245.28;5052681;28;20698;-51
2023/07/13 05:49:37;;;;;;;15.60;10.60;;;;;;;-144.30;26.78;79290.91;5052666;28;20286;-52
2023/07/13 05:52:04;;;;;;;15.80;11.10;;;;;;;-144.30;27.25;79489.38;5052285;28;20220;-52
2023/07/13 05:54:31;;;;;;;14.32;11.73;;;;;;;-144.30;27.05;79606.44;5065179;28;20644;-50
2023/07/13 05:56:59;;;;;;;12.27;10.70;;;;;;;-144.30;26.96;79600.50;5071615;28;20194;-50
2023/07/13 05:59:26;;;;;;;16.35;13.05;;;;;;;-144.30;26.87;79479.44;5072220;28;20205;-50
2023/07/13 06:01:53;;;;;;;24.92;22.38;;;;;;;-144.30;27.03;79415.94;5072121;28;20679;-51
2023/07/13 06:04:20;;;;;;;13.23;12.05;;;;;;;-144.30;26.85;79211.53;5072212;28;20218;-50
2023/07/13 06:06:47;;;;;;;35.30;31.70;;;;;;;-144.30;26.57;79203.59;5071858;28;20195;-49
2023/07/13 06:09:14;;;;;;;13.10;11.25;;;;;;;-144.30;26.82;79370.28;5071675;28;20286;-50
2023/07/13 06:11:41;;;;;;;12.32;11.18;;;;;;;-144.30;27.37;79596.53;5071854;28;20199;-52
2023/07/13 06:14:09;;;;;;;20.58;16.35;;;;;;;-144.30;27.56;79747.38;5065945;28;20200;-52
2023/07/13 06:16:36;;;;;;;15.85;14.13;;;;;;;-144.30;27.27;79491.34;5060660;28;20203;-53
2023/07/13 06:19:03;;;;;;;18.08;11.73;;;;;;;-144.30;26.99;79552.88;5051770;28;20200;-53
2023/07/13 06:21:30;;;;;;;12.15;10.95;;;;;;;-144.30;26.84;79540.97;5051952;28;20204;-52
2023/07/13 06:23:57;;;;;;;16.23;11.80;;;;;;;-144.30;27.10;79580.66;5051764;28;20196;-51
2023/07/13 06:26:24;;;;;;;15.43;13.38;;;;;;;-144.30;27.20;79743.41;5052083;28;20291;-51
2023/07/13 06:28:51;;;;;;;11.93;10.80;;;;;;;-144.30;27.47;79793.00;5051696;28;20196;-50
2023/07/13 06:31:19;;;;;;;12.95;11.93;;;;;;;-144.30;27.41;79721.56;5051842;28;20200;-53
2023/07/13 06:33:46;;;;;;;12.43;11.32;;;;;;;-144.30;27.63;79822.78;5051600;28;20220;-50
2023/07/13 06:36:13;;;;;;;17.77;11.32;;;;;;;-144.30;27.49;79918.06;5051642;28;20236;-52
2023/07/13 06:38:40;;;;;;;11.85;10.75;;;;;;;-144.30;27.36;79975.59;5051913;28;20600;-52
2023/07/13 06:41:08;;;;;;;11.20;10.20;;;;;;;-144.30;27.79;80041.09;5051551;28;20192;-50
2023/07/13 06:43:34;;;;;;;22.73;12.20;;;;;;;-144.30;28.13;80118.53;5051619;28;20199;-50
2023/07/13 06:46:01;;;;;;;18.70;13.23;;;;;;;-144.30;28.00;80120.50;5051191;28;20206;-51
2023/07/13 06:48:30;;;;;;;12.25;10.95;;;;;;;-144.30;28.26;80281.28;5051722;28;20211;-53
2023/07/13 06:50:57;;;;;;;11.68;10.43;;;;;;;-144.30;27.62;80160.19;5051257;28;20204;-50
2023/07/13 06:53:24;;;;;;;16.83;11.27;;;;;;;-144.30;28.20;80178.06;5051582;28;20812;-52
2023/07/13 06:55:51;;;;;;;11.45;10.23;;;;;;;-144.30;28.03;80207.84;5051274;28;20253;-52
2023/07/13 06:58:19;;;;;;;12.20;10.95;;;;;;;-144.30;28.27;80168.16;5051839;28;20635;-52
2023/07/13 07:00:46;;;;;;;12.55;11.55;;;;;;;-144.30;28.21;80229.69;5051153;28;20207;-50
2023/07/13 07:03:14;;;;;;;12.63;10.90;;;;;;;-144.30;28.33;80305.09;5051505;28;20206;-52
2023/07/13 07:05:42;;;;;;;12.43;11.13;;;;;;;-144.30;28.42;80231.66;5051459;28;20287;-52
2023/07/13 07:08:09;;;;;;;12.52;11.20;;;;;;;-144.30;28.29;80418.25;5062090;28;20207;-50
2023/07/13 07:10:36;;;;;;;12.85;11.85;;;;;;;-144.30;28.46;80430.16;5055756;28;20208;-50
2023/07/13 07:13:04;;;;;;;11.75;10.65;;;;;;;-144.30;28.48;80505.59;5056921;28;20242;-52
2023/07/13 07:15:31;;;;;;;11.23;10.18;;;;;;;-144.30;28.73;80737.88;5051320;28;20748;-52
2023/07/13 07:17:58;;;;;;;11.60;10.68;;;;;;;-144.30;28.99;80438.09;5050960;28;20196;-52
2023/07/13 07:20:26;;;;;;;12.52;10.85;;;;;;;-144.30;29.08;80555.22;5050988;28;20203;-51
2023/07/13 07:22:54;;;;;;;11.88;10.80;;;;;;;-144.30;28.87;80513.53;5051305;28;20675;-52
2023/07/13 07:25:21;;;;;;;11.93;10.77;;;;;;;-144.30;28.42;80463.91;5050792;28;20207;-53
2023/07/13 07:27:48;;;;;;;11.93;10.80;;;;;;;-144.30;28.37;80432.16;5050425;28;20200;-51
2023/07/13 07:30:15;;;;;;;12.90;11.40;;;;;;;-144.30;28.40;80376.56;5051181;28;20575;-50
2023/07/13 07:32:43;;;;;;;11.98;10.82;;;;;;;-144.30;28.42;80303.13;5050709;28;20409;-52
2023/07/13 07:35:10;;;;;;;12.73;11.68;;;;;;;-144.30;28.21;80245.56;5050375;28;20267;-53
2023/07/13 07:37:37;;;;;;;12.40;11.25;;;;;;;-144.30;28.22;80269.38;5050666;28;20196;-53
2023/07/13 07:40:06;;;;;;;11.77;10.75;;;;;;;-144.30;27.93;80205.84;5050384;28;20690;-53
2023/07/13 07:42:33;;;;;;;10.90;10.05;;;;;;;-144.30;28.15;80182.03;5058372;28;20191;-51
2023/07/13 07:45:00;;;;;;;11.13;10.20;;;;;;;-144.30;27.67;80140.34;5066368;28;20196;-51
2023/07/13 07:47:28;;;;;;;11.75;10.85;;;;;;;-144.30;28.08;80062.94;5061313;28;20217;-52
2023/07/13 07:49:55;;;;;;;11.48;10.50;;;;;;;-144.30;27.65;80146.31;5050274;28;20214;-52
2023/07/13 07:52:21;;;;;;;10.23;9.35;;;;;;;-144.30;27.23;80009.34;5050232;28;20200;-52
2023/07/13 07:54:48;;;;;;;11.27;10.02;;;;;;;-144.30;27.50;80045.09;5048891;28;20204;-53
2023/07/13 07:57:16;;;;;;;10.80;9.85;;;;;;;-144.30;27.38;80005.38;5050406;28;20200;-50
2023/07/13 07:59:43;;;;;;;27.50;10.57;;;;;;;-144.30;27.03;79916.06;5050074;28;20606;-52
2023/07/13 08:02:12;;;;;;;10.90;9.43;;;;;;;-144.30;26.68;79820.78;5049955;28;20222;-51
2023/07/13 08:04:39;;;;;;;10.55;8.98;;;;;;;-144.30;26.78;79806.91;5049956;28;20253;-52
2023/07/13 08:07:06;;;;;;;10.02;9.13;;;;;;;-144.30;26.70;79691.78;5049655;28;20192;-53
2023/07/13 08:09:33;;;;;;;11.85;9.60;;;;;;;-144.30;26.38;79584.63;5049804;28;20210;-53
2023/07/13 08:12:00;;;;;;;15.02;9.80;;;;;;;-144.30;26.31;79503.25;5049663;28;20290;-53
2023/07/13 08:14:29;;;;;;;10.05;9.15;;;;;;;-144.30;25.96;79435.78;5049288;28;20250;-52
2023/07/13 08:16:56;;;;;;;9.90;9.00;;;;;;;-144.30;26.22;79419.91;5049530;28;20196;-50
2023/07/13 08:19:23;;;;;;;10.55;9.73;;;;;;;-144.30;26.22;79435.78;5049678;28;20605;-52
2023/07/13 08:21:50;;;;;;;11.07;9.98;;;;;;;-144.30;26.04;79326.63;5049548;28;20196;-51
2023/07/13 08:24:18;;;;;;;10.18;9.32;;;;;;;-144.30;25.89;79421.88;5049680;28;20192;-52
2023/07/13 08:26:46;;;;;;;11.10;9.63;;;;;;;-144.30;26.20;79521.13;5049560;28;20258;-53
2023/07/13 08:29:13;;;;;;;16.20;10.55;;;;;;;-144.30;26.72;79525.09;5048799;28;20192;-52
2023/07/13 08:31:41;;;;;;;15.57;12.20;;;;;;;-144.30;26.09;79290.91;5049538;28;20295;-51
2023/07/13 08:34:08;;;;;;;11.05;10.02;;;;;;;-144.30;25.93;79263.13;5049245;28;20230;-52
2023/07/13 08:36:35;;;;;;;10.63;8.65;;;;;;;-144.30;25.90;79554.84;5049341;28;20236;-50
2023/07/13 08:39:02;;;;;;;10.13;9.40;;;;;;;-144.30;26.04;79525.09;5049021;28;20227;-51
2023/07/13 08:41:29;;;;;;;10.48;9.65;;;;;;;-144.30;26.34;79614.38;5049727;28;20571;-51
2023/07/13 08:43:59;;;;;;;11.32;9.38;;;;;;;-144.30;26.50;79578.66;5049323;28;20198;-50
2023/07/13 08:46:33;;;;;;;10.57;9.57;;;;;;;-144.30;26.92;79779.13;5049727;28;20664;-51
2023/07/13 08:49:04;;;;;;;10.45;9.63;;;;;;;-144.30;26.78;79945.84;5049922;28;20218;-51
2023/07/13 08:51:44;;;;;;;10.65;9.82;;;;;;;-144.30;26.38;80011.34;5050019;28;20294;-53
2023/07/13 08:54:19;;;;;;;11.32;9.95;;;;;;;-144.30;26.68;79922.03;5049004;28;20215;-53
2023/07/13 08:56:47;;;;;;;10.57;9.45;;;;;;;-144.30;26.65;80076.84;5049305;28;20199;-53
2023/07/13 08:59:18;;;;;;;16.48;12.40;;;;;;;-144.30;26.70;79977.59;5049481;28;20212;-51
2023/07/13 09:02:15;;;;;;;17.40;11.43;;;;;;;-144.30;26.33;79842.63;5049210;28;20196;-53
2023/07/13 09:04:48;;;;;;;13.80;9.90;;;;;;;-144.30;26.31;80029.19;5048935;28;20242;-53
2023/07/13 09:07:28;;;;;;;16.33;10.07;;;;;;;-144.30;27.96;80128.44;5049196;28;20278;-53
2023/07/13 09:10:08;;;;;;;10.48;9.23;;;;;;;-144.30;27.28;80144.31;5048611;28;20207;-53
2023/07/13 09:12:47;;;;;;;10.02;9.05;;;;;;;-144.30;27.04;80253.50;5049037;28;20200;-52
2023/07/13 09:15:25;;;;;;;15.70;9.35;;;;;;;-144.30;29.43;80251.50;5049080;28;20697;-52
2023/07/13 09:17:55;;;;;;;10.43;8.70;;;;;;;-144.30;27.14;80144.31;5048724;28;20204;-52
2023/07/13 09:20:29;;;;;;;13.35;8.27;;;;;;;-144.30;27.79;80114.56;5048756;28;20648;-53
2023/07/13 09:23:00;;;;;;;9.40;8.63;;;;;;;-144.30;26.87;80055.00;5048645;28;20215;-53
2023/07/13 09:25:31;;;;;;;10.63;9.63;;;;;;;-144.30;26.75;80051.03;5048887;28;20210;-49
2023/07/13 09:28:02;;;;;;;10.77;8.57;;;;;;;-144.30;26.29;80164.16;5048590;28;20521;-50
2023/07/13 09:30:38;;;;;;;8.95;8.25;;;;;;;-144.30;27.15;80322.97;5048662;28;20283;-51
2023/07/13 09:33:05;;;;;;;8.80;8.02;;;;;;;-144.30;27.62;80344.81;5048368;28;20219;-53
2023/07/13 09:35:35;;;;;;;17.05;8.80;;;;;;;-144.30;27.17;80257.47;5048802;28;20231;-53
2023/07/13 09:38:07;;;;;;;12.95;8.13;;;;;;;-144.30;26.55;80166.16;5048685;28;20295;-53
2023/07/13 09:40:45;;;;;;;12.95;8.45;;;;;;;-144.30;26.41;79961.72;5048732;28;20199;-53
2023/07/13 09:43:15;;;;;;;8.68;7.97;;;;;;;-144.30;26.07;80072.88;5067608;28;20687;-52
2023/07/13 09:45:46;;;;;;;8.35;7.65;;;;;;;-144.30;25.61;80019.28;5060799;28;20204;-53
2023/07/13 09:48:15;;;;;;;9.10;7.75;;;;;;;-144.30;26.28;80007.38;5048571;28;20197;-52
2023/07/13 09:50:44;;;;;;;11.55;7.88;;;;;;;-144.30;25.34;79989.50;5048564;28;20199;-50
2023/07/13 09:53:15;;;;;;;9.95;7.60;;;;;;;-144.30;24.94;79874.38;5048308;28;20227;-50
2023/07/13 09:55:44;;;;;;;7.68;6.88;;;;;;;-144.30;25.14;79874.38;5048446;28;20203;-53
2023/07/13 09:58:15;;;;;;;10.15;6.95;;;;;;;-144.30;24.98;79874.38;5048599;28;20196;-53
2023/07/13 10:00:44;;;;;;;10.23;7.78;;;;;;;-144.30;24.97;79783.09;5057104;28;20704;-53
2023/07/13 10:03:20;;;;;;;8.02;7.28;;;;;;;-144.30;24.56;80116.53;5050479;28;20265;-52
2023/07/13 10:05:51;;;;;;;7.57;7.00;;;;;;;-144.30;24.46;79854.53;5048523;28;20203;-52
2023/07/13 10:08:20;;;;;;;26.38;23.58;;;;;;;-144.30;24.92;79933.94;5053739;28;20924;-52
2023/07/13 10:10:47;;;;;;;7.75;7.22;;;;;;;-144.30;24.66;79882.31;5053563;28;20208;-52
2023/07/13 10:13:27;;;;;;;8.30;7.60;;;;;;;-144.30;24.61;79926.00;5048180;28;20228;-52
2023/07/13 10:15:56;;;;;;;9.45;6.88;;;;;;;-144.30;24.91;79945.84;5059376;28;20199;-53
2023/07/13 10:18:25;;;;;;;8.70;7.55;;;;;;;-144.30;25.13;79963.69;5051307;28;20708;-54
2023/07/13 10:21:00;;;;;;;7.40;6.90;;;;;;;-144.30;24.82;80029.19;5051764;28;20200;-53
2023/07/13 10:23:32;;;;;;;7.03;6.50;;;;;;;-144.30;24.91;80064.94;5052191;28;20204;-53
2023/07/13 10:26:01;;;;;;;8.02;7.20;;;;;;;-144.30;24.60;80106.63;5051985;28;20250;-52
2023/07/13 10:28:32;;;;;;;9.65;6.72;;;;;;;-144.30;24.91;80057.00;5052156;28;20196;-52
2023/07/13 10:31:02;;;;;;;7.50;6.95;;;;;;;-144.30;24.89;80096.69;5058680;28;20203;-49
2023/07/13 10:33:29;;;;;;;12.13;7.93;;;;;;;-144.30;25.31;80237.63;5071466;28;20247;-50
2023/07/13 10:36:04;;;;;;;7.80;6.80;;;;;;;-144.30;25.21;80271.34;5071522;28;20608;-51
2023/07/13 10:38:31;;;;;;;6.90;6.50;;;;;;;-144.30;25.00;80265.41;5072001;28;20635;-50
2023/07/13 10:41:04;;;;;;;10.60;7.40;;;;;;;-144.30;24.88;80279.28;5071708;28;20202;-50
2023/07/13 10:43:37;;;;;;;7.03;6.45;;;;;;;-144.30;24.84;80313.03;5071656;28;20225;-50
2023/07/13 10:46:08;;;;;;;9.68;8.00;;;;;;;-144.30;24.83;80237.63;5071479;28;20195;-50
2023/07/13 10:48:36;;;;;;;9.43;7.25;;;;;;;-144.30;24.96;80305.09;5071679;28;20195;-51
2023/07/13 10:51:07;;;;;;;7.65;6.80;;;;;;;-144.30;24.76;80386.50;5071412;28;20203;-51
2023/07/13 10:53:36;;;;;;;10.07;9.05;;;;;;;-144.30;24.95;80388.47;5063517;28;20607;-50
2023/07/13 10:56:08;;;;;;;8.63;7.55;;;;;;;-144.30;25.46;80444.06;5051284;28;20213;-52
2023/07/13 10:58:37;;;;;;;7.53;6.82;;;;;;;-144.30;25.37;80448.03;5053104;28;20686;-50
2023/07/13 11:01:09;;;;;;;7.43;6.72;;;;;;;-144.30;25.42;80442.06;5060643;28;20212;-50
2023/07/13 11:03:47;;;;;;;7.68;6.97;;;;;;;-144.30;25.34;80410.31;5051381;28;20196;-51
2023/07/13 11:06:36;;;;;;;8.13;7.35;;;;;;;-144.30;25.00;80386.50;5061536;28;20705;-53
2023/07/13 11:09:20;;;;;;;8.48;6.10;;;;;;;-144.30;24.62;80426.19;5070820;28;20256;-50
2023/07/13 11:11:47;;;;;;;10.43;6.57;;;;;;;-144.30;24.69;80430.16;5071208;28;20229;-50